Time;durP1;ratioP1;P1;durP2;ratioP2;P2;SDS_P1;SDS_P2;PMS_P1;PMS_P2;Temp;Humidity;BMP_temperature;BMP_pressure;BME280_temperature;BME280_humidity;BME280_pressure;Samples;Min_cycle;Max_cycle;Signal;HPM_P1;HPM_P2
2021/04/15 00:00:42;;;;;;;16.80;11.38;;;154.10;2252.80;;;;;;5071466;28;20028;-65
2021/04/15 00:03:11;;;;;;;16.92;11.77;;;154.10;2252.80;;;;;;5066043;28;20033;-64
2021/04/15 00:05:38;;;;;;;15.63;11.68;;;154.10;2252.80;;;;;;5068738;28;20027;-68
2021/04/15 00:08:06;;;;;;;17.33;12.15;;;154.10;2252.80;;;;;;5071436;28;20029;-69
2021/04/15 00:10:39;;;;;;;16.27;12.07;;;154.10;2252.80;;;;;;5071126;28;20530;-69
2021/04/15 00:13:27;;;;;;;16.13;12.07;;;154.10;2252.80;;;;;;5071388;28;20485;-65
2021/04/15 00:15:54;;;;;;;17.10;12.30;;;154.10;2252.80;;;;;;5070948;28;20066;-65
2021/04/15 00:18:22;;;;;;;16.77;12.35;;;154.10;2252.80;;;;;;5071583;28;20028;-65
2021/04/15 00:20:48;;;;;;;17.23;12.10;;;154.00;2252.80;;;;;;5070830;28;20078;-65
2021/04/15 00:23:14;;;;;;;17.23;12.43;;;154.00;2252.80;;;;;;5071071;28;20020;-65
2021/04/15 00:25:40;;;;;;;16.85;12.73;;;154.00;2252.80;;;;;;5079027;28;20388;-66
2021/04/15 00:28:06;;;;;;;15.82;11.85;;;154.00;2252.80;;;;;;5071429;28;20017;-64
2021/04/15 00:30:33;;;;;;;17.23;12.00;;;154.00;2252.80;;;;;;5070609;28;20020;-65
2021/04/15 00:32:59;;;;;;;16.85;12.48;;;154.00;2252.80;;;;;;5071195;28;20107;-65
2021/04/15 00:35:25;;;;;;;16.92;12.20;;;154.00;2252.80;;;;;;5071121;28;20112;-65
2021/04/15 00:37:51;;;;;;;17.40;12.57;;;154.00;2252.80;;;;;;5070783;28;20044;-65
2021/04/15 00:40:22;;;;;;;18.05;12.20;;;154.00;2252.80;;;;;;5070821;28;20393;-65
2021/04/15 00:42:48;;;;;;;15.68;12.07;;;154.00;2252.80;;;;;;5070826;28;20099;-65
2021/04/15 00:45:16;;;;;;;16.90;12.10;;;154.00;2252.80;;;;;;5069508;28;20116;-65
2021/04/15 00:47:46;;;;;;;16.80;12.60;;;154.00;2252.80;;;;;;5070727;28;20016;-64
2021/04/15 00:50:19;;;;;;;16.30;12.30;;;154.10;2252.80;;;;;;5070496;28;20036;-68
2021/04/15 00:52:50;;;;;;;15.35;11.27;;;154.00;2252.80;;;;;;5070763;28;20043;-65
2021/04/15 00:55:23;;;;;;;16.23;11.98;;;154.10;2252.80;;;;;;5070269;28;20373;-65
2021/04/15 00:57:51;;;;;;;16.45;11.90;;;154.10;2252.80;;;;;;5070560;28;20035;-64
2021/04/15 01:00:23;;;;;;;16.35;11.90;;;154.10;2252.80;;;;;;5070495;28;20473;-65
2021/04/15 01:02:49;;;;;;;14.57;11.32;;;154.00;2252.80;;;;;;5070661;28;20055;-65
2021/04/15 01:05:20;;;;;;;15.00;11.25;;;154.00;2252.80;;;;;;5081117;28;20017;-64
2021/04/15 01:07:46;;;;;;;14.98;10.65;;;154.00;2252.80;;;;;;5070836;28;20095;-65
2021/04/15 01:10:13;;;;;;;13.27;10.60;;;154.10;2252.80;;;;;;5070072;28;20151;-66
2021/04/15 01:13:12;;;;;;;14.45;9.88;;;154.10;2252.80;;;;;;5070825;28;20032;-65
2021/04/15 01:15:43;;;;;;;13.90;10.50;;;154.10;2252.80;;;;;;5057121;28;20024;-67
2021/04/15 01:18:19;;;;;;;13.27;9.50;;;154.10;2252.80;;;;;;5070573;28;20111;-66
2021/04/15 01:21:07;;;;;;;12.73;9.60;;;154.10;2252.80;;;;;;5070377;28;20038;-66
2021/04/15 01:23:59;;;;;;;11.98;9.23;;;154.00;2252.80;;;;;;5070158;28;20025;-66
2021/04/15 01:27:08;;;;;;;11.55;9.35;;;154.10;2252.80;;;;;;5075944;28;20027;-65
2021/04/15 01:29:41;;;;;;;12.40;9.15;;;154.10;2252.80;;;;;;5070063;28;20025;-65
2021/04/15 01:32:14;;;;;;;10.90;8.77;;;154.00;2252.80;;;;;;5070337;28;20025;-65
2021/04/15 01:34:58;;;;;;;11.75;9.02;;;154.00;2252.80;;;;;;5070416;28;20024;-65
2021/04/15 01:37:38;;;;;;;12.00;8.75;;;154.00;2252.80;;;;;;5070232;28;20361;-65
2021/04/15 01:40:09;;;;;;;11.38;8.50;;;154.00;2252.80;;;;;;5070114;28;20477;-65
2021/04/15 01:43:03;;;;;;;11.73;8.77;;;154.00;2252.80;;;;;;5070232;28;20028;-66
2021/04/15 01:45:30;;;;;;;11.35;8.48;;;154.00;2252.80;;;;;;5070376;28;20028;-66
2021/04/15 01:48:01;;;;;;;10.63;8.73;;;154.00;2252.80;;;;;;5070326;28;20412;-66
2021/04/15 01:50:37;;;;;;;12.13;8.82;;;154.00;2252.80;;;;;;5069861;28;20497;-65
2021/04/15 01:53:26;;;;;;;12.25;9.43;;;154.00;2252.80;;;;;;5056925;28;20397;-66
2021/04/15 01:56:22;;;;;;;12.98;9.55;;;154.00;2252.80;;;;;;5060727;28;20040;-68
2021/04/15 01:58:52;;;;;;;13.60;9.27;;;154.00;2252.80;;;;;;5069884;28;20063;-65
2021/04/15 02:01:21;;;;;;;13.37;9.57;;;154.00;2252.80;;;;;;5070527;28;20366;-66
2021/04/15 02:03:50;;;;;;;15.75;9.93;;;154.00;2252.80;;;;;;5074648;28;20605;-66
2021/04/15 02:06:24;;;;;;;13.77;10.85;;;154.00;2252.80;;;;;;5074737;28;20047;-65
2021/04/15 02:08:59;;;;;;;13.02;10.10;;;154.00;2252.80;;;;;;5073568;28;20085;-65
2021/04/15 02:11:46;;;;;;;14.20;10.40;;;154.10;2252.80;;;;;;5073633;28;20104;-65
2021/04/15 02:14:21;;;;;;;13.07;9.70;;;154.10;2252.80;;;;;;5062398;28;20406;-66
2021/04/15 02:16:50;;;;;;;14.07;9.88;;;154.10;2252.80;;;;;;5073937;28;20385;-65
2021/04/15 02:19:21;;;;;;;14.68;10.00;;;154.10;2252.80;;;;;;5073580;28;20460;-65
2021/04/15 02:22:09;;;;;;;13.23;9.63;;;154.20;2252.80;;;;;;5073438;28;20029;-65
2021/04/15 02:24:38;;;;;;;12.60;9.85;;;154.20;2252.80;;;;;;5074870;28;20052;-67
2021/04/15 02:27:17;;;;;;;14.90;10.95;;;154.20;2252.80;;;;;;5076897;28;20110;-63
2021/04/15 02:29:49;;;;;;;14.00;10.55;;;154.20;2252.80;;;;;;5073337;28;20038;-63
2021/04/15 02:32:23;;;;;;;16.67;10.90;;;154.20;2252.80;;;;;;5073221;28;20372;-67
2021/04/15 02:35:06;;;;;;;16.50;10.80;;;154.20;2252.80;;;;;;5073506;28;20062;-64
2021/04/15 02:37:41;;;;;;;16.27;11.70;;;154.20;2252.80;;;;;;5072799;28;20528;-64
2021/04/15 02:40:15;;;;;;;15.30;11.75;;;154.20;2252.80;;;;;;5073118;28;20107;-64
2021/04/15 02:42:43;;;;;;;15.43;11.13;;;154.10;2252.80;;;;;;5073010;28;20063;-64
2021/04/15 02:45:37;;;;;;;16.17;11.43;;;154.10;2252.80;;;;;;5073395;28;20078;-64
2021/04/15 02:48:15;;;;;;;18.23;11.75;;;154.10;2252.80;;;;;;5073221;28;20023;-64
2021/04/15 02:50:43;;;;;;;17.30;11.93;;;154.00;2252.80;;;;;;5072573;28;20049;-64
2021/04/15 02:53:17;;;;;;;17.70;11.80;;;154.00;2252.80;;;;;;5073034;28;20090;-64
2021/04/15 02:56:00;;;;;;;18.05;12.32;;;154.00;2252.80;;;;;;5072914;28;20441;-64
2021/04/15 02:58:53;;;;;;;16.88;11.88;;;154.00;2252.80;;;;;;5072978;28;20031;-64
2021/04/15 03:01:26;;;;;;;17.60;12.32;;;154.10;2252.80;;;;;;5072715;28;20020;-64
2021/04/15 03:03:54;;;;;;;17.80;12.35;;;154.10;2252.80;;;;;;5077707;28;20042;-64
2021/04/15 03:06:26;;;;;;;18.60;12.63;;;154.10;2252.80;;;;;;5075036;28;20024;-63
2021/04/15 03:08:59;;;;;;;18.95;13.23;;;154.00;2252.80;;;;;;5072300;28;20017;-66
2021/04/15 03:11:45;;;;;;;18.67;12.38;;;154.00;2252.80;;;;;;5072590;28;20016;-64
2021/04/15 03:14:36;;;;;;;17.25;11.98;;;154.00;2252.80;;;;;;5072778;28;20029;-65
2021/04/15 03:17:06;;;;;;;19.63;12.73;;;154.00;2252.80;;;;;;5072029;28;20158;-65
2021/04/15 03:19:50;;;;;;;19.65;12.77;;;154.00;2252.80;;;;;;5072159;28;20095;-65
2021/04/15 03:22:28;;;;;;;19.83;12.30;;;154.00;2252.80;;;;;;5072217;28;20021;-65
2021/04/15 03:24:57;;;;;;;18.88;12.15;;;154.00;2252.80;;;;;;5076282;28;20461;-64
2021/04/15 03:27:32;;;;;;;20.17;12.93;;;154.00;2252.80;;;;;;5073098;28;20029;-68
2021/04/15 03:30:08;;;;;;;19.77;12.43;;;154.00;2252.80;;;;;;5072169;28;20016;-64
2021/04/15 03:33:04;;;;;;;17.63;11.60;;;154.00;2252.80;;;;;;5071836;28;20115;-67
2021/04/15 03:35:39;;;;;;;18.90;12.15;;;154.00;2252.80;;;;;;5071043;28;20024;-65
2021/04/15 03:38:05;;;;;;;17.48;11.48;;;154.00;2252.80;;;;;;5072216;28;20012;-65
2021/04/15 03:40:33;;;;;;;18.52;11.90;;;154.00;2252.80;;;;;;5071706;28;20102;-66
2021/04/15 03:43:11;;;;;;;18.98;12.18;;;154.00;2252.80;;;;;;5071990;28;20030;-65
2021/04/15 03:45:50;;;;;;;18.42;11.77;;;154.00;2252.80;;;;;;5072020;28;20025;-66
2021/04/15 03:48:31;;;;;;;18.25;12.13;;;154.10;2252.80;;;;;;5072210;28;20021;-65
2021/04/15 03:51:00;;;;;;;17.65;11.93;;;154.10;2252.80;;;;;;5071683;28;20037;-65
2021/04/15 03:53:49;;;;;;;17.90;11.85;;;154.10;2252.80;;;;;;5072137;28;20664;-64
2021/04/15 03:56:44;;;;;;;17.77;11.93;;;154.10;2252.80;;;;;;5070957;28;20040;-64
2021/04/15 03:59:17;;;;;;;17.92;11.88;;;154.10;2252.80;;;;;;5071463;28;20020;-65
2021/04/15 04:01:49;;;;;;;18.85;11.98;;;154.10;2252.80;;;;;;5071744;28;20025;-65
2021/04/15 04:04:42;;;;;;;17.23;11.73;;;154.10;2252.80;;;;;;5078982;28;20453;-64
2021/04/15 04:07:26;;;;;;;16.95;11.30;;;154.10;2252.80;;;;;;5071842;28;20024;-65
2021/04/15 04:10:01;;;;;;;17.98;11.60;;;154.00;2252.80;;;;;;5071165;28;20427;-66
2021/04/15 04:12:40;;;;;;;18.95;12.15;;;153.90;2252.80;;;;;;5071743;28;20498;-65
2021/04/15 04:15:25;;;;;;;17.40;11.10;;;153.80;2252.80;;;;;;5071248;28;20497;-64
2021/04/15 04:18:06;;;;;;;14.93;10.13;;;153.80;2252.80;;;;;;5071591;28;20237;-64
2021/04/15 04:20:38;;;;;;;14.25;9.85;;;153.80;2252.80;;;;;;5070620;28;20028;-64
2021/04/15 04:23:30;;;;;;;15.65;9.85;;;153.70;2252.80;;;;;;5071177;28;20021;-65
2021/04/15 04:26:15;;;;;;;15.18;10.13;;;153.60;2252.80;;;;;;5065635;28;20508;-64
2021/04/15 04:29:01;;;;;;;15.30;9.70;;;153.60;2252.80;;;;;;5070079;28;20048;-64
2021/04/15 04:31:32;;;;;;;14.25;9.00;;;153.60;2252.80;;;;;;5071302;28;20518;-65
2021/04/15 04:33:58;;;;;;;;;;;153.60;2252.80;;;;;;5071254;28;20473;-64
2021/04/15 04:36:27;;;;;;;12.55;8.50;;;153.70;2252.80;;;;;;5071174;28;19950;-64
2021/04/15 04:38:56;;;;;;;14.77;9.70;;;153.80;2252.80;;;;;;5070674;28;20095;-65
2021/04/15 04:41:27;;;;;;;15.52;9.32;;;153.80;2252.80;;;;;;5070944;28;20385;-65
2021/04/15 04:43:57;;;;;;;16.35;9.23;;;153.80;2252.80;;;;;;5070636;28;20075;-65
2021/04/15 04:46:32;;;;;;;14.32;9.35;;;153.80;2252.80;;;;;;5070973;28;20029;-65
2021/04/15 04:49:05;;;;;;;13.25;8.98;;;153.80;2252.80;;;;;;5065225;28;20032;-64
2021/04/15 04:51:54;;;;;;;15.30;8.88;;;153.90;2252.80;;;;;;5070789;28;20048;-64
2021/04/15 04:54:21;;;;;;;13.20;8.85;;;154.00;2252.80;;;;;;5070666;28;20029;-64
2021/04/15 04:57:15;;;;;;;12.38;8.60;;;154.10;2252.80;;;;;;5071004;28;20020;-64
2021/04/15 04:59:46;;;;;;;11.68;7.75;;;154.30;2252.80;;;;;;5050861;28;20024;-64
2021/04/15 05:02:15;;;;;;;12.40;7.85;;;154.30;2252.80;;;;;;5070456;28;20043;-64
2021/04/15 05:04:42;;;;;;;12.80;7.95;;;154.30;2252.80;;;;;;5078351;28;20023;-68
2021/04/15 05:07:18;;;;;;;10.85;7.10;;;154.30;2252.80;;;;;;5070890;28;20032;-64
2021/04/15 05:09:45;;;;;;;16.55;9.57;;;154.30;2252.80;;;;;;5070264;28;20100;-65
2021/04/15 05:12:24;;;;;;;14.98;9.18;;;154.30;2252.80;;;;;;5069239;28;20032;-64
2021/04/15 05:14:52;;;;;;;13.30;8.68;;;154.30;2252.80;;;;;;5070757;28;20082;-64
2021/04/15 05:17:27;;;;;;;11.23;8.05;;;154.30;2252.80;;;;;;5070689;28;20035;-64
2021/04/15 05:19:54;;;;;;;10.70;7.63;;;154.30;2252.80;;;;;;5070150;28;20024;-64
2021/04/15 05:22:25;;;;;;;10.50;7.38;;;179.20;2252.80;;;;;;5070361;28;20032;-65
2021/04/15 05:25:06;;;;;;;11.52;7.55;;;204.90;2252.80;;;;;;5074037;28;20035;-65
2021/04/15 05:27:35;;;;;;;11.13;7.80;;;230.60;2176.00;;;;;;5056780;28;20020;-65
2021/04/15 05:30:23;;;;;;;11.07;7.35;;;256.20;2022.40;;;;;;5070310;28;20061;-65
2021/04/15 05:32:50;;;;;;;8.98;7.35;;;281.70;1868.80;;;;;;5074197;28;20115;-65
2021/04/15 05:35:23;;;;;;;10.48;7.13;;;307.30;1792.00;;;;;;5070364;28;20033;-65
2021/04/15 05:37:52;;;;;;;8.73;7.00;;;307.90;1689.60;;;;;;5056372;28;20081;-66
2021/04/15 05:40:18;;;;;;;12.68;10.07;;;333.10;1689.60;;;;;;5070919;28;20316;-65
2021/04/15 05:43:17;;;;;;;12.25;8.50;;;333.40;1612.80;;;;;;5074468;28;20052;-65
2021/04/15 05:45:45;;;;;;;13.80;10.45;;;358.50;1587.20;;;;;;5074159;28;20022;-66
2021/04/15 05:48:14;;;;;;;11.27;8.07;;;359.00;1561.60;;;;;;5074079;28;20090;-66
2021/04/15 05:50:46;;;;;;;10.20;8.75;;;384.50;1459.20;;;;;;5073638;28;20072;-65
2021/04/15 05:53:29;;;;;;;10.10;7.70;;;409.60;1459.20;;;;;;5073999;28;20017;-67
2021/04/15 05:56:02;;;;;;;8.48;6.68;;;409.80;1408.00;;;;;;5073823;28;20043;-65
2021/04/15 05:58:34;;;;;;;10.27;7.43;;;384.70;1408.00;;;;;;5074121;28;20426;-64
2021/04/15 06:01:05;;;;;;;10.73;6.82;;;384.10;1459.20;;;;;;5073711;28;20086;-64
2021/04/15 06:04:15;;;;;;;9.55;6.18;;;358.90;1484.80;;;;;;5076244;28;20024;-65
2021/04/15 06:06:43;;;;;;;10.77;7.03;;;358.80;1459.20;;;;;;5037643;28;20481;-66
2021/04/15 06:09:10;;;;;;;12.75;7.60;;;358.50;1536.00;;;;;;5073781;28;20381;-65
2021/04/15 06:11:38;;;;;;;22.77;13.25;;;358.50;1484.80;;;;;;5073376;28;20027;-65
2021/04/15 06:14:31;;;;;;;26.27;18.38;;;333.30;1561.60;;;;;;5073835;28;20074;-64
2021/04/15 06:17:30;;;;;;;8.85;6.78;;;332.80;1587.20;;;;;;5073181;28;20538;-64
2021/04/15 06:20:27;;;;;;;10.15;6.07;;;307.40;1638.40;;;;;;5073369;28;20028;-64
2021/04/15 06:22:57;;;;;;;8.25;5.97;;;282.30;1638.40;;;;;;5064252;28;20035;-64
2021/04/15 06:25:36;;;;;;;10.60;7.88;;;282.00;1664.00;;;;;;5077875;28;20150;-64
2021/04/15 06:28:10;;;;;;;8.50;5.90;;;281.80;1689.60;;;;;;5073756;28;20036;-65
2021/04/15 06:30:59;;;;;;;7.20;4.63;;;281.70;1689.60;;;;;;5072869;28;20150;-64
2021/04/15 06:33:27;;;;;;;8.45;5.47;;;282.20;1664.00;;;;;;5073283;28;20029;-64
2021/04/15 06:35:56;;;;;;;6.43;4.40;;;307.20;1664.00;;;;;;5072887;28;20051;-65
2021/04/15 06:38:30;;;;;;;6.25;4.10;;;307.90;1587.20;;;;;;5073432;28;20493;-66
2021/04/15 06:41:14;;;;;;;5.72;4.43;;;333.00;1536.00;;;;;;5072917;28;20111;-66
2021/04/15 06:44:05;;;;;;;7.65;4.93;;;333.60;1510.40;;;;;;5073504;28;20034;-64
2021/04/15 06:46:45;;;;;;;6.78;3.90;;;384.50;1408.00;;;;;;5062503;28;20020;-66
2021/04/15 06:49:17;;;;;;;;;;;384.90;1331.20;;;;;;5072802;28;20021;-65
2021/04/15 06:51:51;;;;;;;6.25;4.40;;;384.60;1305.60;;;;;;5072549;28;20003;-64
2021/04/15 06:54:35;;;;;;;6.95;3.97;;;409.80;1356.80;;;;;;5072629;28;20044;-64
2021/04/15 06:57:19;;;;;;;6.90;4.82;;;384.00;1382.40;;;;;;5072814;28;20027;-63
2021/04/15 07:00:06;;;;;;;8.50;5.10;;;384.60;1305.60;;;;;;5072480;28;20470;-65
2021/04/15 07:02:39;;;;;;;8.13;4.57;;;359.20;1356.80;;;;;;5071736;28;20086;-66
2021/04/15 07:05:29;;;;;;;6.43;4.30;;;384.80;1331.20;;;;;;5073734;28;20031;-65
2021/04/15 07:08:32;;;;;;;8.70;4.50;;;409.70;1331.20;;;;;;5073782;28;20358;-64
2021/04/15 07:11:28;;;;;;;5.80;4.00;;;384.40;1356.80;;;;;;5044131;28;20037;-64
2021/04/15 07:14:14;;;;;;;6.10;4.15;;;384.50;1305.60;;;;;;5070766;28;20016;-65
2021/04/15 07:17:05;;;;;;;8.18;5.13;;;409.70;1305.60;;;;;;5071360;28;20418;-65
2021/04/15 07:19:34;;;;;;;8.45;4.90;;;435.20;1254.40;;;;;;5071883;28;20112;-68
2021/04/15 07:22:27;;;;;;;6.95;4.63;;;436.00;1203.20;;;;;;5071800;28;20025;-64
2021/04/15 07:25:30;;;;;;;9.63;7.15;;;461.70;1177.60;;;;;;5075069;28;20090;-66
2021/04/15 07:28:22;;;;;;;9.13;6.90;;;486.60;1126.40;;;;;;5070453;28;20048;-67
2021/04/15 07:30:57;;;;;;;10.93;7.45;;;538.00;1075.20;;;;;;5073084;28;20055;-65
2021/04/15 07:33:55;;;;;;;10.00;7.15;;;563.60;1049.60;;;;;;5072145;28;20028;-65
2021/04/15 07:36:40;;;;;;;9.38;7.20;;;538.50;1024.00;;;;;;5056310;28;20115;-64
2021/04/15 07:39:27;;;;;;;10.52;7.60;;;563.60;1024.00;;;;;;5056124;28;20112;-63
2021/04/15 07:42:14;;;;;;;9.52;6.80;;;538.30;1024.00;;;;;;5052931;28;20056;-66
2021/04/15 07:44:44;;;;;;;8.57;6.07;;;538.00;1024.00;;;;;;5071663;28;20032;-68
2021/04/15 07:47:19;;;;;;;6.70;5.38;;;487.10;1049.60;;;;;;5063842;28;20025;-68
2021/04/15 07:49:57;;;;;;;6.68;5.47;;;486.80;1075.20;;;;;;5052464;28;20037;-68
2021/04/15 07:53:01;;;;;;;7.43;5.15;;;461.70;1100.80;;;;;;5053523;28;20544;-68
2021/04/15 07:55:51;;;;;;;7.50;5.38;;;435.80;1177.60;;;;;;5051686;28;20033;-68
2021/04/15 07:58:49;;;;;;;7.18;5.03;;;435.60;1177.60;;;;;;5053273;28;20398;-67
2021/04/15 08:01:56;;;;;;;23.13;16.63;;;409.80;1228.80;;;;;;5057318;28;20032;-67
2021/04/15 08:04:22;;;;;;;8.98;5.85;;;384.40;1228.80;;;;;;5021590;28;20040;-67
2021/04/15 08:07:25;;;;;;;8.77;5.45;;;359.20;1254.40;;;;;;5071229;28;20099;-70
2021/04/15 08:10:15;;;;;;;6.72;5.15;;;358.90;1305.60;;;;;;5070797;28;20546;-73
2021/04/15 08:13:08;;;;;;;9.13;6.97;;;410.40;1177.60;;;;;;5070320;28;20523;-68
2021/04/15 08:15:59;;;;;;;6.97;5.18;;;409.80;1177.60;;;;;;5060722;28;20047;-76
2021/04/15 08:18:46;;;;;;;6.93;4.80;;;435.80;1152.00;;;;;;5056049;28;20099;-68
2021/04/15 08:21:18;;;;;;;8.25;4.43;;;384.90;1177.60;;;;;;5070852;28;20032;-72
2021/04/15 08:24:01;;;;;;;6.88;5.20;;;359.00;1254.40;;;;;;5069844;28;20062;-68
2021/04/15 08:26:34;;;;;;;6.88;4.82;;;333.40;1305.60;;;;;;5076801;28;20027;-68
2021/04/15 08:29:26;;;;;;;5.32;3.75;;;332.90;1382.40;;;;;;5070519;28;20443;-70
2021/04/15 08:32:11;;;;;;;6.72;4.13;;;308.00;1382.40;;;;;;5071105;28;20032;-70
2021/04/15 08:34:36;;;;;;;6.40;4.00;;;307.90;1356.80;;;;;;5070974;28;20108;-72
2021/04/15 08:37:30;;;;;;;5.10;3.80;;;333.20;1356.80;;;;;;5070807;28;20104;-74
2021/04/15 08:40:24;;;;;;;6.35;4.20;;;358.40;1331.20;;;;;;5070566;28;20028;-69
2021/04/15 08:43:15;;;;;;;6.80;4.10;;;359.10;1305.60;;;;;;5068979;28;20032;-73
2021/04/15 08:45:48;;;;;;;;;;;384.20;1203.20;;;;;;5071416;28;20020;-74
2021/04/15 08:48:32;;;;;;;5.35;3.95;;;359.00;1228.80;;;;;;5070431;28;19957;-68
2021/04/15 08:51:25;;;;;;;6.97;4.43;;;358.70;1280.00;;;;;;5070434;28;20158;-73
2021/04/15 08:54:19;;;;;;;8.15;4.60;;;333.50;1305.60;;;;;;5070830;28;20111;-72
2021/04/15 08:57:03;;;;;;;5.47;3.58;;;332.80;1356.80;;;;;;5059856;28;20028;-68
2021/04/15 08:59:35;;;;;;;6.97;4.45;;;307.80;1356.80;;;;;;5070411;28;20024;-69
2021/04/15 09:02:22;;;;;;;6.05;3.90;;;333.50;1331.20;;;;;;5070714;28;20451;-68
2021/04/15 09:04:57;;;;;;;6.72;4.50;;;359.20;1254.40;;;;;;5078715;28;20013;-73
2021/04/15 09:07:47;;;;;;;6.90;4.10;;;461.00;1126.40;;;;;;5070957;28;20017;-68
2021/04/15 09:10:15;;;;;;;13.88;8.52;;;409.60;1203.20;;;;;;5070710;28;20074;-70
2021/04/15 09:13:14;;;;;;;8.13;4.97;;;358.90;1254.40;;;;;;5071073;28;20500;-69
2021/04/15 09:15:47;;;;;;;7.47;4.35;;;333.40;1331.20;;;;;;5070290;28;20105;-67
2021/04/15 09:18:25;;;;;;;5.93;3.70;;;308.10;1356.80;;;;;;5070307;28;20074;-68
2021/04/15 09:21:21;;;;;;;7.63;5.10;;;307.80;1356.80;;;;;;5070648;28;20028;-67
2021/04/15 09:23:58;;;;;;;6.47;3.70;;;307.70;1382.40;;;;;;5070551;28;20024;-68
2021/04/15 09:26:51;;;;;;;29.40;18.40;;;308.10;1356.80;;;;;;5076114;28;20029;-68
2021/04/15 09:29:27;;;;;;;6.20;4.32;;;308.10;1331.20;;;;;;5056709;28;20489;-72
2021/04/15 09:32:02;;;;;;;6.57;4.00;;;307.80;1356.80;;;;;;5070290;28;20430;-75
2021/04/15 09:34:46;;;;;;;8.73;4.50;;;307.60;1356.80;;;;;;5068984;28;20029;-73
2021/04/15 09:37:26;;;;;;;7.97;5.38;;;307.40;1382.40;;;;;;5055126;28;20029;-70
2021/04/15 09:39:52;;;;;;;7.60;3.80;;;282.50;1382.40;;;;;;5069640;28;20032;-69
2021/04/15 09:42:37;;;;;;;6.30;3.88;;;282.10;1382.40;;;;;;5069960;28;20032;-75
2021/04/15 09:45:27;;;;;;;8.85;3.80;;;282.00;1408.00;;;;;;5070231;28;20108;-72
2021/04/15 09:48:14;;;;;;;7.55;4.15;;;282.30;1408.00;;;;;;5069832;28;20020;-73
2021/04/15 09:51:11;;;;;;;10.48;6.22;;;308.00;1382.40;;;;;;5069752;28;21349;-73
2021/04/15 09:53:48;;;;;;;5.75;3.67;;;333.00;1356.80;;;;;;5030021;28;20504;-72
2021/04/15 09:56:32;;;;;;;5.50;3.30;;;332.80;1356.80;;;;;;5055380;28;20033;-71
2021/04/15 09:59:10;;;;;;;6.32;3.50;;;307.80;1331.20;;;;;;5068118;28;20017;-68
2021/04/15 10:01:46;;;;;;;5.15;3.15;;;307.50;1331.20;;;;;;5067838;28;20032;-73
2021/04/15 10:04:26;;;;;;;4.63;2.95;;;307.40;1382.40;;;;;;5071529;28;20025;-71
2021/04/15 10:06:58;;;;;;;7.82;4.00;;;307.70;1356.80;;;;;;5057829;28;20081;-69
2021/04/15 10:09:40;;;;;;;6.03;3.60;;;332.90;1356.80;;;;;;5054083;28;20175;-73
2021/04/15 10:12:37;;;;;;;5.88;3.40;;;333.20;1331.20;;;;;;5051623;28;20113;-73
2021/04/15 10:15:31;;;;;;;8.60;5.18;;;333.00;1331.20;;;;;;5032514;28;20044;-68
2021/04/15 10:18:27;;;;;;;9.77;5.32;;;332.80;1331.20;;;;;;5043596;28;20426;-73
2021/04/15 10:21:01;;;;;;;8.38;4.80;;;307.90;1356.80;;;;;;5069513;28;20021;-80
2021/04/15 10:23:50;;;;;;;8.65;5.50;;;307.50;1356.80;;;;;;5068513;28;20374;-69
2021/04/15 10:26:41;;;;;;;7.32;4.40;;;307.40;1382.40;;;;;;5066883;28;20031;-69
2021/04/15 10:29:25;;;;;;;7.82;4.80;;;307.30;1382.40;;;;;;5072340;28;20023;-73
2021/04/15 10:31:57;;;;;;;6.47;3.78;;;282.50;1382.40;;;;;;5073600;28;20323;-78
2021/04/15 10:34:41;;;;;;;10.05;5.60;;;282.40;1382.40;;;;;;5072169;28;20477;-78
2021/04/15 10:37:25;;;;;;;8.98;5.85;;;282.50;1408.00;;;;;;5073220;28;20032;-78
2021/04/15 10:40:26;;;;;;;34.03;20.52;;;307.20;1433.60;;;;;;5073180;28;20035;-71
2021/04/15 10:43:15;;;;;;;7.35;4.00;;;282.20;1408.00;;;;;;5017552;28;20044;-72
2021/04/15 10:46:05;;;;;;;5.80;3.88;;;281.90;1433.60;;;;;;5050182;28;20056;-72
2021/04/15 10:48:39;;;;;;;11.13;3.95;;;256.90;1433.60;;;;;;5072893;28;20404;-78
2021/04/15 10:51:11;;;;;;;7.88;4.03;;;256.80;1433.60;;;;;;5072815;28;20127;-74
2021/04/15 10:53:46;;;;;;;7.85;4.55;;;256.80;1408.00;;;;;;5073151;28;20032;-72
2021/04/15 10:56:33;;;;;;;6.70;3.92;;;256.90;1433.60;;;;;;5072618;28;20357;-69
2021/04/15 10:59:02;;;;;;;5.50;3.60;;;281.70;1433.60;;;;;;5072660;28;20028;-77
2021/04/15 11:01:46;;;;;;;7.88;4.00;;;282.10;1408.00;;;;;;5072711;28;20028;-69
2021/04/15 11:04:12;;;;;;;6.30;4.10;;;282.50;1408.00;;;;;;5080348;28;20031;-65
2021/04/15 11:06:40;;;;;;;7.80;4.63;;;307.70;1408.00;;;;;;5072878;28;20025;-66
2021/04/15 11:09:28;;;;;;;8.02;4.47;;;307.70;1382.40;;;;;;5072050;28;20033;-74
2021/04/15 11:11:53;;;;;;;6.70;4.13;;;307.20;1408.00;;;;;;5069695;28;20497;-67
2021/04/15 11:14:19;;;;;;;8.95;5.25;;;282.30;1382.40;;;;;;5071667;28;20165;-62
2021/04/15 11:16:51;;;;;;;9.65;4.40;;;281.90;1408.00;;;;;;5053554;28;20013;-63
2021/04/15 11:19:17;;;;;;;7.75;4.30;;;256.90;1408.00;;;;;;5054028;28;20519;-68
2021/04/15 11:21:44;;;;;;;6.40;3.75;;;256.70;1459.20;;;;;;5071755;28;20029;-62
2021/04/15 11:24:27;;;;;;;6.50;3.88;;;256.70;1459.20;;;;;;5072342;28;20438;-65
2021/04/15 11:26:55;;;;;;;6.63;4.15;;;256.70;1459.20;;;;;;5056659;28;20071;-66
2021/04/15 11:29:23;;;;;;;7.53;3.92;;;256.90;1459.20;;;;;;5052730;28;20072;-75
2021/04/15 11:31:49;;;;;;;6.60;3.65;;;256.90;1459.20;;;;;;5054185;28;20020;-63
2021/04/15 11:34:23;;;;;;;5.55;3.65;;;281.60;1433.60;;;;;;5065763;28;20103;-64
2021/04/15 11:36:58;;;;;;;6.03;3.38;;;256.90;1433.60;;;;;;5064044;28;20126;-67
2021/04/15 11:39:28;;;;;;;7.28;4.03;;;256.80;1433.60;;;;;;5051228;28;20017;-65
2021/04/15 11:42:02;;;;;;;5.82;3.47;;;256.80;1433.60;;;;;;5051547;28;20018;-73
2021/04/15 11:44:36;;;;;;;6.30;3.60;;;281.60;1459.20;;;;;;5057832;28;21256;-68
2021/04/15 11:47:21;;;;;;;8.15;5.15;;;281.90;1433.60;;;;;;5051200;28;20025;-69
2021/04/15 11:49:47;;;;;;;6.85;4.85;;;307.20;1459.20;;;;;;5052124;28;20045;-69
2021/04/15 11:52:19;;;;;;;6.45;4.20;;;307.90;1408.00;;;;;;5052279;28;20066;-64
2021/04/15 11:54:48;;;;;;;6.22;4.25;;;333.40;1356.80;;;;;;5051986;28;20021;-65
2021/04/15 11:57:20;;;;;;;6.80;4.10;;;358.70;1305.60;;;;;;5051149;28;20079;-65
2021/04/15 12:00:01;;;;;;;9.85;4.65;;;359.00;1228.80;;;;;;5050959;28;20068;-67
2021/04/15 12:02:31;;;;;;;6.82;4.85;;;358.90;1254.40;;;;;;5065482;28;20021;-65
2021/04/15 12:05:12;;;;;;;7.75;4.30;;;358.60;1305.60;;;;;;5078373;28;20427;-64
2021/04/15 12:07:40;;;;;;;5.97;3.70;;;333.60;1356.80;;;;;;5071642;28;20419;-64
2021/04/15 12:10:09;;;;;;;7.68;5.13;;;333.00;1356.80;;;;;;5070896;28;20012;-67
2021/04/15 12:12:45;;;;;;;6.28;4.15;;;308.10;1382.40;;;;;;5071289;28;20115;-63
2021/04/15 12:15:16;;;;;;;6.45;4.40;;;307.60;1433.60;;;;;;5071308;28;20460;-66
2021/04/15 12:17:51;;;;;;;12.30;8.27;;;307.20;1484.80;;;;;;5071443;28;20507;-66
2021/04/15 12:20:35;;;;;;;9.90;5.75;;;282.40;1459.20;;;;;;5064338;28;20537;-65
2021/04/15 12:23:29;;;;;;;8.82;5.00;;;282.50;1459.20;;;;;;5071340;28;20503;-65
2021/04/15 12:26:00;;;;;;;7.75;5.32;;;307.50;1459.20;;;;;;5069521;28;20009;-64
2021/04/15 12:28:41;;;;;;;8.18;5.25;;;308.00;1433.60;;;;;;5071168;28;20016;-64
2021/04/15 12:31:17;;;;;;;7.63;4.85;;;332.80;1433.60;;;;;;5061304;28;20094;-65
2021/04/15 12:33:55;;;;;;;6.07;4.30;;;332.90;1408.00;;;;;;5069598;28;20033;-71
2021/04/15 12:36:30;;;;;;;8.15;4.80;;;332.90;1433.60;;;;;;5071107;28;20056;-65
2021/04/15 12:39:01;;;;;;;6.65;3.70;;;333.00;1408.00;;;;;;5070588;28;20024;-65
2021/04/15 12:41:28;;;;;;;5.82;3.95;;;332.90;1408.00;;;;;;5071012;28;20028;-66
2021/04/15 12:44:11;;;;;;;5.75;4.35;;;332.80;1356.80;;;;;;5070030;28;20032;-65
2021/04/15 12:46:40;;;;;;;5.97;3.63;;;308.00;1305.60;;;;;;5070950;28;20054;-65
2021/04/15 12:49:10;;;;;;;8.25;5.55;;;333.00;1382.40;;;;;;5070393;28;20070;-66
2021/04/15 12:51:44;;;;;;;6.22;3.60;;;333.40;1356.80;;;;;;5069922;28;20048;-65
2021/04/15 12:54:15;;;;;;;6.07;4.20;;;358.50;1331.20;;;;;;5070549;28;20420;-66
2021/04/15 12:56:47;;;;;;;8.23;4.35;;;358.90;1254.40;;;;;;5070801;28;20024;-65
2021/04/15 12:59:39;;;;;;;7.35;4.70;;;359.00;1254.40;;;;;;5070353;28;20103;-65
2021/04/15 13:02:19;;;;;;;7.43;3.63;;;359.00;1305.60;;;;;;5062466;28;20051;-65
2021/04/15 13:04:54;;;;;;;5.18;3.38;;;358.70;1305.60;;;;;;5073839;28;20546;-65